West Melbourne, Florida
Current Conditions -  °F | °C
As of 5:53 AM on Tuesday 21 Oct 2014 (Local Time) from KMLB Reporting Station
Clear Clear  
Wind Chill: 72°   Ceiling: Unl
Heat Index: 72°   Visibility: 10mi
Dew Point: 66°   Wind: 0mph
Humidity: 81%   Direction: NA
Pressure: 29.93"   Gusts: NA
Location:  28.0786°N, 80.6027°W
Report Text: KMLB 210953Z 00000KT 10SM CLR 22/19 A2993 RMK AO2 SLP135 T02220189
Loading
Personal Weather Stations






























Interactive Weather Map New forecast layout! Learn more

10-Day Weather Forecast

Advertisements
Track Severe Weather on mobile